sensor_id;sensor_type;location;lat;lon;timestamp;temperature;humidity
13482;DHT22;6813;60.352;15.746;2023-08-17T00:01:40;17.90;99.90
13482;DHT22;6813;60.352;15.746;2023-08-17T00:04:06;17.90;99.90
13482;DHT22;6813;60.352;15.746;2023-08-17T00:06:32;18.00;99.90
13482;DHT22;6813;60.352;15.746;2023-08-17T00:08:58;18.00;99.90
13482;DHT22;6813;60.352;15.746;2023-08-17T00:11:23;18.10;99.90
13482;DHT22;6813;60.352;15.746;2023-08-17T00:13:49;18.00;99.90
13482;DHT22;6813;60.352;15.746;2023-08-17T00:16:15;18.00;99.90
13482;DHT22;6813;60.352;15.746;2023-08-17T00:18:41;18.00;99.90
13482;DHT22;6813;60.352;15.746;2023-08-17T00:21:06;18.00;99.90
13482;DHT22;6813;60.352;15.746;2023-08-17T00:23:32;18.00;99.90
13482;DHT22;6813;60.352;15.746;2023-08-17T00:25:58;18.00;99.90
13482;DHT22;6813;60.352;15.746;2023-08-17T00:28:24;17.90;99.90
13482;DHT22;6813;60.352;15.746;2023-08-17T00:30:50;17.90;99.90
13482;DHT22;6813;60.352;15.746;2023-08-17T00:33:16;17.80;99.90
13482;DHT22;6813;60.352;15.746;2023-08-17T00:35:42;17.80;99.90
13482;DHT22;6813;60.352;15.746;2023-08-17T00:38:08;17.80;99.90
13482;DHT22;6813;60.352;15.746;2023-08-17T00:40:34;17.70;99.90
13482;DHT22;6813;60.352;15.746;2023-08-17T00:43:00;17.60;99.90
13482;DHT22;6813;60.352;15.746;2023-08-17T00:45:26;17.60;99.90
13482;DHT22;6813;60.352;15.746;2023-08-17T00:47:56;17.60;99.90
13482;DHT22;6813;60.352;15.746;2023-08-17T00:50:22;17.40;99.90
13482;DHT22;6813;60.352;15.746;2023-08-17T00:52:49;17.30;99.90
13482;DHT22;6813;60.352;15.746;2023-08-17T00:55:14;17.30;99.90
13482;DHT22;6813;60.352;15.746;2023-08-17T00:57:40;17.30;99.90
13482;DHT22;6813;60.352;15.746;2023-08-17T01:00:09;17.40;99.90
13482;DHT22;6813;60.352;15.746;2023-08-17T01:02:35;17.40;99.90
13482;DHT22;6813;60.352;15.746;2023-08-17T01:05:01;17.40;99.90
13482;DHT22;6813;60.352;15.746;2023-08-17T01:07:27;17.40;99.90
13482;DHT22;6813;60.352;15.746;2023-08-17T01:09:52;17.30;99.90
13482;DHT22;6813;60.352;15.746;2023-08-17T01:12:30;17.20;99.90
13482;DHT22;6813;60.352;15.746;2023-08-17T01:20:10;17.00;99.90
13482;DHT22;6813;60.352;15.746;2023-08-17T01:22:41;16.90;99.90
13482;DHT22;6813;60.352;15.746;2023-08-17T01:25:07;16.90;99.90
13482;DHT22;6813;60.352;15.746;2023-08-17T01:27:44;16.80;99.90
13482;DHT22;6813;60.352;15.746;2023-08-17T01:30:11;16.80;99.90
13482;DHT22;6813;60.352;15.746;2023-08-17T01:33:08;16.90;99.90
13482;DHT22;6813;60.352;15.746;2023-08-17T01:38:24;17.00;99.90
13482;DHT22;6813;60.352;15.746;2023-08-17T01:40:52;16.90;99.90
13482;DHT22;6813;60.352;15.746;2023-08-17T01:43:19;17.00;99.90
13482;DHT22;6813;60.352;15.746;2023-08-17T01:45:45;17.10;99.90
13482;DHT22;6813;60.352;15.746;2023-08-17T01:48:11;17.10;99.90
13482;DHT22;6813;60.352;15.746;2023-08-17T01:50:37;17.20;99.90
13482;DHT22;6813;60.352;15.746;2023-08-17T01:53:03;17.20;99.90
13482;DHT22;6813;60.352;15.746;2023-08-17T01:55:28;17.10;99.90
13482;DHT22;6813;60.352;15.746;2023-08-17T01:57:54;17.10;99.90
13482;DHT22;6813;60.352;15.746;2023-08-17T02:00:20;17.10;99.90
13482;DHT22;6813;60.352;15.746;2023-08-17T02:02:46;17.20;99.90
13482;DHT22;6813;60.352;15.746;2023-08-17T02:05:11;17.10;99.90
13482;DHT22;6813;60.352;15.746;2023-08-17T02:07:37;17.20;99.90
13482;DHT22;6813;60.352;15.746;2023-08-17T02:10:03;17.10;99.90
13482;DHT22;6813;60.352;15.746;2023-08-17T02:12:29;17.20;99.90
13482;DHT22;6813;60.352;15.746;2023-08-17T02:14:54;17.20;99.90
13482;DHT22;6813;60.352;15.746;2023-08-17T02:17:20;17.10;99.90
13482;DHT22;6813;60.352;15.746;2023-08-17T02:19:48;16.90;99.90
13482;DHT22;6813;60.352;15.746;2023-08-17T02:22:14;16.90;99.90
13482;DHT22;6813;60.352;15.746;2023-08-17T02:24:40;16.80;99.90
13482;DHT22;6813;60.352;15.746;2023-08-17T02:27:06;16.90;99.90
13482;DHT22;6813;60.352;15.746;2023-08-17T02:29:32;16.90;99.90
13482;DHT22;6813;60.352;15.746;2023-08-17T02:31:58;16.80;99.90
13482;DHT22;6813;60.352;15.746;2023-08-17T02:34:23;16.70;99.90
13482;DHT22;6813;60.352;15.746;2023-08-17T02:36:49;16.70;99.90
13482;DHT22;6813;60.352;15.746;2023-08-17T02:39:15;16.70;99.90
13482;DHT22;6813;60.352;15.746;2023-08-17T02:41:40;16.60;99.90
13482;DHT22;6813;60.352;15.746;2023-08-17T02:44:06;16.50;99.90
13482;DHT22;6813;60.352;15.746;2023-08-17T02:46:32;16.50;99.90
13482;DHT22;6813;60.352;15.746;2023-08-17T02:48:57;16.50;99.90
13482;DHT22;6813;60.352;15.746;2023-08-17T02:51:23;16.50;99.90
13482;DHT22;6813;60.352;15.746;2023-08-17T02:53:49;16.50;99.90
13482;DHT22;6813;60.352;15.746;2023-08-17T02:56:15;16.50;99.90
13482;DHT22;6813;60.352;15.746;2023-08-17T02:58:40;16.50;99.90
13482;DHT22;6813;60.352;15.746;2023-08-17T03:01:07;16.40;99.90
13482;DHT22;6813;60.352;15.746;2023-08-17T03:03:32;16.40;99.90
13482;DHT22;6813;60.352;15.746;2023-08-17T03:05:58;16.40;99.90
13482;DHT22;6813;60.352;15.746;2023-08-17T03:08:24;16.30;99.90
13482;DHT22;6813;60.352;15.746;2023-08-17T03:10:49;16.20;99.90
13482;DHT22;6813;60.352;15.746;2023-08-17T03:13:15;16.10;99.90
13482;DHT22;6813;60.352;15.746;2023-08-17T03:15:41;16.00;99.90
13482;DHT22;6813;60.352;15.746;2023-08-17T03:18:07;15.90;99.90
13482;DHT22;6813;60.352;15.746;2023-08-17T03:20:33;15.90;99.90
13482;DHT22;6813;60.352;15.746;2023-08-17T03:22:58;15.80;99.90
13482;DHT22;6813;60.352;15.746;2023-08-17T03:25:24;15.80;99.90
13482;DHT22;6813;60.352;15.746;2023-08-17T03:27:49;15.80;99.90
13482;DHT22;6813;60.352;15.746;2023-08-17T03:30:15;15.80;99.90
13482;DHT22;6813;60.352;15.746;2023-08-17T03:32:41;15.90;99.90
13482;DHT22;6813;60.352;15.746;2023-08-17T03:35:07;15.80;99.90
13482;DHT22;6813;60.352;15.746;2023-08-17T03:37:33;15.80;99.90
13482;DHT22;6813;60.352;15.746;2023-08-17T03:39:58;15.70;99.90
13482;DHT22;6813;60.352;15.746;2023-08-17T03:42:26;15.70;99.90
13482;DHT22;6813;60.352;15.746;2023-08-17T03:44:52;15.70;99.90
13482;DHT22;6813;60.352;15.746;2023-08-17T03:47:18;15.60;99.90
13482;DHT22;6813;60.352;15.746;2023-08-17T03:49:44;15.60;99.90
13482;DHT22;6813;60.352;15.746;2023-08-17T03:52:10;15.60;99.90
13482;DHT22;6813;60.352;15.746;2023-08-17T03:54:36;15.60;99.90
13482;DHT22;6813;60.352;15.746;2023-08-17T03:57:02;15.50;99.90
13482;DHT22;6813;60.352;15.746;2023-08-17T03:59:28;15.60;99.90
13482;DHT22;6813;60.352;15.746;2023-08-17T04:01:54;15.50;99.90
13482;DHT22;6813;60.352;15.746;2023-08-17T04:04:19;15.50;99.90
13482;DHT22;6813;60.352;15.746;2023-08-17T04:06:45;15.40;99.90
13482;DHT22;6813;60.352;15.746;2023-08-17T04:09:11;15.50;99.90
13482;DHT22;6813;60.352;15.746;2023-08-17T04:11:36;15.60;99.90
13482;DHT22;6813;60.352;15.746;2023-08-17T04:14:03;15.60;99.90
13482;DHT22;6813;60.352;15.746;2023-08-17T04:16:29;15.50;99.90
13482;DHT22;6813;60.352;15.746;2023-08-17T04:18:54;15.40;99.90
13482;DHT22;6813;60.352;15.746;2023-08-17T04:21:20;15.50;99.90
13482;DHT22;6813;60.352;15.746;2023-08-17T04:23:46;15.50;99.90
13482;DHT22;6813;60.352;15.746;2023-08-17T04:26:12;15.40;99.90
13482;DHT22;6813;60.352;15.746;2023-08-17T04:28:38;15.50;99.90
13482;DHT22;6813;60.352;15.746;2023-08-17T04:31:04;15.40;99.90
13482;DHT22;6813;60.352;15.746;2023-08-17T04:33:29;15.40;99.90
13482;DHT22;6813;60.352;15.746;2023-08-17T04:35:55;15.50;99.90
13482;DHT22;6813;60.352;15.746;2023-08-17T04:38:21;15.50;99.90
13482;DHT22;6813;60.352;15.746;2023-08-17T04:40:47;15.60;99.90
13482;DHT22;6813;60.352;15.746;2023-08-17T04:43:13;15.80;99.90
13482;DHT22;6813;60.352;15.746;2023-08-17T04:45:38;16.00;99.90
13482;DHT22;6813;60.352;15.746;2023-08-17T04:48:05;16.20;99.90
13482;DHT22;6813;60.352;15.746;2023-08-17T04:50:31;16.50;99.90
13482;DHT22;6813;60.352;15.746;2023-08-17T04:52:57;16.70;99.90
13482;DHT22;6813;60.352;15.746;2023-08-17T04:55:23;16.90;99.90
13482;DHT22;6813;60.352;15.746;2023-08-17T04:57:49;17.10;99.90
13482;DHT22;6813;60.352;15.746;2023-08-17T05:00:15;17.30;99.90
13482;DHT22;6813;60.352;15.746;2023-08-17T05:02:41;17.50;99.90
13482;DHT22;6813;60.352;15.746;2023-08-17T05:05:09;17.70;99.90
13482;DHT22;6813;60.352;15.746;2023-08-17T05:07:34;17.90;99.90
13482;DHT22;6813;60.352;15.746;2023-08-17T05:10:01;18.10;99.90
13482;DHT22;6813;60.352;15.746;2023-08-17T05:12:27;18.20;99.90
13482;DHT22;6813;60.352;15.746;2023-08-17T05:14:53;18.40;99.90
13482;DHT22;6813;60.352;15.746;2023-08-17T05:17:19;18.60;99.90
13482;DHT22;6813;60.352;15.746;2023-08-17T05:19:45;18.80;99.90
13482;DHT22;6813;60.352;15.746;2023-08-17T05:22:12;18.90;99.90
13482;DHT22;6813;60.352;15.746;2023-08-17T05:24:38;19.00;99.90
13482;DHT22;6813;60.352;15.746;2023-08-17T05:27:04;19.00;99.90
13482;DHT22;6813;60.352;15.746;2023-08-17T05:29:30;19.10;99.90
13482;DHT22;6813;60.352;15.746;2023-08-17T05:31:58;19.20;99.90
13482;DHT22;6813;60.352;15.746;2023-08-17T05:34:24;19.40;99.90
13482;DHT22;6813;60.352;15.746;2023-08-17T05:36:49;19.50;99.90
13482;DHT22;6813;60.352;15.746;2023-08-17T05:39:15;19.40;99.90
13482;DHT22;6813;60.352;15.746;2023-08-17T05:41:41;19.60;99.90
13482;DHT22;6813;60.352;15.746;2023-08-17T05:44:07;19.70;99.90
13482;DHT22;6813;60.352;15.746;2023-08-17T05:46:33;19.80;99.90
13482;DHT22;6813;60.352;15.746;2023-08-17T05:49:00;19.90;99.90
13482;DHT22;6813;60.352;15.746;2023-08-17T05:51:26;20.10;99.90
13482;DHT22;6813;60.352;15.746;2023-08-17T05:53:51;20.10;99.90
13482;DHT22;6813;60.352;15.746;2023-08-17T05:56:17;20.10;99.90
13482;DHT22;6813;60.352;15.746;2023-08-17T05:58:43;20.20;99.90
13482;DHT22;6813;60.352;15.746;2023-08-17T06:01:10;20.10;99.90
13482;DHT22;6813;60.352;15.746;2023-08-17T06:03:37;20.20;99.90
13482;DHT22;6813;60.352;15.746;2023-08-17T06:06:04;20.40;99.90
13482;DHT22;6813;60.352;15.746;2023-08-17T06:08:31;20.50;99.90
13482;DHT22;6813;60.352;15.746;2023-08-17T06:10:56;20.50;99.90
13482;DHT22;6813;60.352;15.746;2023-08-17T06:13:22;20.70;99.90
13482;DHT22;6813;60.352;15.746;2023-08-17T06:15:48;21.00;99.90
13482;DHT22;6813;60.352;15.746;2023-08-17T06:18:14;21.10;99.90
13482;DHT22;6813;60.352;15.746;2023-08-17T06:20:39;21.30;99.90
13482;DHT22;6813;60.352;15.746;2023-08-17T06:23:05;21.60;99.90
13482;DHT22;6813;60.352;15.746;2023-08-17T06:25:30;21.90;99.90
13482;DHT22;6813;60.352;15.746;2023-08-17T06:27:56;22.00;99.90
13482;DHT22;6813;60.352;15.746;2023-08-17T06:30:22;22.00;99.90
13482;DHT22;6813;60.352;15.746;2023-08-17T06:32:48;22.10;99.90
13482;DHT22;6813;60.352;15.746;2023-08-17T06:35:15;22.10;99.90
13482;DHT22;6813;60.352;15.746;2023-08-17T06:37:41;22.20;99.90
13482;DHT22;6813;60.352;15.746;2023-08-17T06:40:07;22.40;99.90
13482;DHT22;6813;60.352;15.746;2023-08-17T06:42:34;22.70;99.90
13482;DHT22;6813;60.352;15.746;2023-08-17T06:45:00;22.80;99.80
13482;DHT22;6813;60.352;15.746;2023-08-17T06:47:26;22.90;99.30
13482;DHT22;6813;60.352;15.746;2023-08-17T06:49:52;22.90;99.50
13482;DHT22;6813;60.352;15.746;2023-08-17T06:52:17;23.10;99.00
13482;DHT22;6813;60.352;15.746;2023-08-17T06:54:43;23.10;99.00
13482;DHT22;6813;60.352;15.746;2023-08-17T06:57:09;23.00;98.00
13482;DHT22;6813;60.352;15.746;2023-08-17T06:59:35;23.10;98.10
13482;DHT22;6813;60.352;15.746;2023-08-17T07:02:00;23.10;98.70
13482;DHT22;6813;60.352;15.746;2023-08-17T07:04:26;23.20;97.50
13482;DHT22;6813;60.352;15.746;2023-08-17T07:06:52;23.40;97.80
13482;DHT22;6813;60.352;15.746;2023-08-17T07:09:17;23.70;98.00
13482;DHT22;6813;60.352;15.746;2023-08-17T07:11:44;24.00;97.30
13482;DHT22;6813;60.352;15.746;2023-08-17T07:14:10;23.80;96.80
13482;DHT22;6813;60.352;15.746;2023-08-17T07:16:36;24.00;96.80
13482;DHT22;6813;60.352;15.746;2023-08-17T07:19:02;24.20;96.20
13482;DHT22;6813;60.352;15.746;2023-08-17T07:21:28;24.30;96.60
13482;DHT22;6813;60.352;15.746;2023-08-17T07:23:55;24.40;95.70
13482;DHT22;6813;60.352;15.746;2023-08-17T07:26:21;24.40;95.50
13482;DHT22;6813;60.352;15.746;2023-08-17T07:28:48;24.50;97.10
13482;DHT22;6813;60.352;15.746;2023-08-17T07:31:14;24.70;95.30
13482;DHT22;6813;60.352;15.746;2023-08-17T07:33:40;24.80;94.20
13482;DHT22;6813;60.352;15.746;2023-08-17T07:36:06;24.70;93.90
13482;DHT22;6813;60.352;15.746;2023-08-17T07:38:32;24.10;94.60
13482;DHT22;6813;60.352;15.746;2023-08-17T07:40:58;24.10;94.10
13482;DHT22;6813;60.352;15.746;2023-08-17T07:43:24;23.90;95.00
13482;DHT22;6813;60.352;15.746;2023-08-17T07:45:54;24.10;95.00
13482;DHT22;6813;60.352;15.746;2023-08-17T07:48:20;24.00;95.10
13482;DHT22;6813;60.352;15.746;2023-08-17T07:50:51;24.40;94.90
13482;DHT22;6813;60.352;15.746;2023-08-17T07:53:18;24.40;95.60
13482;DHT22;6813;60.352;15.746;2023-08-17T07:55:44;24.50;95.60
13482;DHT22;6813;60.352;15.746;2023-08-17T07:58:10;24.70;94.30
13482;DHT22;6813;60.352;15.746;2023-08-17T08:00:35;24.80;93.60
13482;DHT22;6813;60.352;15.746;2023-08-17T08:03:01;24.60;94.00
13482;DHT22;6813;60.352;15.746;2023-08-17T08:05:27;24.50;93.40
13482;DHT22;6813;60.352;15.746;2023-08-17T08:07:53;24.50;94.70
13482;DHT22;6813;60.352;15.746;2023-08-17T08:10:18;24.60;94.60
13482;DHT22;6813;60.352;15.746;2023-08-17T08:12:44;24.70;94.80
13482;DHT22;6813;60.352;15.746;2023-08-17T08:15:10;24.40;93.40
13482;DHT22;6813;60.352;15.746;2023-08-17T08:17:36;24.20;94.20
13482;DHT22;6813;60.352;15.746;2023-08-17T08:20:03;24.30;96.50
13482;DHT22;6813;60.352;15.746;2023-08-17T08:22:29;24.30;94.70
13482;DHT22;6813;60.352;15.746;2023-08-17T08:24:55;24.40;93.90
13482;DHT22;6813;60.352;15.746;2023-08-17T08:27:21;24.40;92.90
13482;DHT22;6813;60.352;15.746;2023-08-17T08:29:46;24.10;93.70
13482;DHT22;6813;60.352;15.746;2023-08-17T08:32:12;24.20;93.70
13482;DHT22;6813;60.352;15.746;2023-08-17T08:34:38;24.00;94.20
13482;DHT22;6813;60.352;15.746;2023-08-17T08:37:04;24.20;95.30
13482;DHT22;6813;60.352;15.746;2023-08-17T08:39:30;24.30;93.70
13482;DHT22;6813;60.352;15.746;2023-08-17T08:41:55;24.20;93.80
13482;DHT22;6813;60.352;15.746;2023-08-17T08:44:22;24.40;93.10
13482;DHT22;6813;60.352;15.746;2023-08-17T08:46:48;24.20;93.60
13482;DHT22;6813;60.352;15.746;2023-08-17T08:49:22;24.50;93.60
13482;DHT22;6813;60.352;15.746;2023-08-17T08:51:50;24.60;93.20
13482;DHT22;6813;60.352;15.746;2023-08-17T08:54:21;24.80;93.70
13482;DHT22;6813;60.352;15.746;2023-08-17T08:56:59;25.10;93.70
13482;DHT22;6813;60.352;15.746;2023-08-17T08:59:27;24.80;92.70
13482;DHT22;6813;60.352;15.746;2023-08-17T09:01:55;24.90;92.70
13482;DHT22;6813;60.352;15.746;2023-08-17T09:04:22;24.90;91.90
13482;DHT22;6813;60.352;15.746;2023-08-17T09:06:49;24.70;91.20
13482;DHT22;6813;60.352;15.746;2023-08-17T09:09:16;24.60;93.50
13482;DHT22;6813;60.352;15.746;2023-08-17T09:11:43;24.80;93.40
13482;DHT22;6813;60.352;15.746;2023-08-17T09:14:09;24.60;92.90
13482;DHT22;6813;60.352;15.746;2023-08-17T09:16:35;24.30;92.80
13482;DHT22;6813;60.352;15.746;2023-08-17T09:19:01;24.20;92.70
13482;DHT22;6813;60.352;15.746;2023-08-17T09:21:31;24.30;93.00
13482;DHT22;6813;60.352;15.746;2023-08-17T09:23:57;24.20;92.20
13482;DHT22;6813;60.352;15.746;2023-08-17T09:26:23;24.20;93.40
13482;DHT22;6813;60.352;15.746;2023-08-17T09:28:52;24.30;92.80
13482;DHT22;6813;60.352;15.746;2023-08-17T09:31:24;24.40;92.30
13482;DHT22;6813;60.352;15.746;2023-08-17T09:33:50;24.20;91.90
13482;DHT22;6813;60.352;15.746;2023-08-17T09:36:23;24.10;93.50
13482;DHT22;6813;60.352;15.746;2023-08-17T09:38:50;24.20;93.70
13482;DHT22;6813;60.352;15.746;2023-08-17T09:41:17;24.40;92.40
13482;DHT22;6813;60.352;15.746;2023-08-17T09:43:43;24.30;93.20
13482;DHT22;6813;60.352;15.746;2023-08-17T09:46:09;24.30;92.00
13482;DHT22;6813;60.352;15.746;2023-08-17T09:48:36;24.40;91.80
13482;DHT22;6813;60.352;15.746;2023-08-17T09:51:02;24.40;91.80
13482;DHT22;6813;60.352;15.746;2023-08-17T09:53:28;24.50;93.00
13482;DHT22;6813;60.352;15.746;2023-08-17T09:55:54;24.60;91.90
13482;DHT22;6813;60.352;15.746;2023-08-17T09:58:22;24.70;91.90
13482;DHT22;6813;60.352;15.746;2023-08-17T10:00:49;24.70;92.20
13482;DHT22;6813;60.352;15.746;2023-08-17T10:03:17;24.70;90.80
13482;DHT22;6813;60.352;15.746;2023-08-17T10:05:45;24.40;93.10
13482;DHT22;6813;60.352;15.746;2023-08-17T10:08:13;24.40;91.40
13482;DHT22;6813;60.352;15.746;2023-08-17T10:10:45;24.40;91.50
13482;DHT22;6813;60.352;15.746;2023-08-17T10:13:43;24.50;91.80
13482;DHT22;6813;60.352;15.746;2023-08-17T10:16:24;24.60;91.50
13482;DHT22;6813;60.352;15.746;2023-08-17T10:19:18;24.60;91.00
13482;DHT22;6813;60.352;15.746;2023-08-17T10:21:50;24.40;91.60
13482;DHT22;6813;60.352;15.746;2023-08-17T10:24:19;24.50;92.50
13482;DHT22;6813;60.352;15.746;2023-08-17T10:26:45;24.70;91.90
13482;DHT22;6813;60.352;15.746;2023-08-17T10:29:11;25.00;91.10
13482;DHT22;6813;60.352;15.746;2023-08-17T10:31:38;25.10;91.40
13482;DHT22;6813;60.352;15.746;2023-08-17T10:34:04;25.00;91.00
13482;DHT22;6813;60.352;15.746;2023-08-17T10:36:31;25.10;90.90
13482;DHT22;6813;60.352;15.746;2023-08-17T10:41:49;25.10;91.00
13482;DHT22;6813;60.352;15.746;2023-08-17T10:49:44;24.90;89.60
13482;DHT22;6813;60.352;15.746;2023-08-17T10:52:11;25.00;91.10
13482;DHT22;6813;60.352;15.746;2023-08-17T10:54:41;25.00;90.50
13482;DHT22;6813;60.352;15.746;2023-08-17T11:00:21;24.90;90.20
13482;DHT22;6813;60.352;15.746;2023-08-17T11:05:44;24.70;91.30
13482;DHT22;6813;60.352;15.746;2023-08-17T11:08:31;24.70;90.80
13482;DHT22;6813;60.352;15.746;2023-08-17T11:11:06;24.90;90.40
13482;DHT22;6813;60.352;15.746;2023-08-17T11:13:43;25.00;89.70
13482;DHT22;6813;60.352;15.746;2023-08-17T11:16:11;25.00;90.30
13482;DHT22;6813;60.352;15.746;2023-08-17T11:18:37;24.90;90.00
13482;DHT22;6813;60.352;15.746;2023-08-17T11:21:05;24.90;90.90
13482;DHT22;6813;60.352;15.746;2023-08-17T11:23:33;25.10;91.00
13482;DHT22;6813;60.352;15.746;2023-08-17T11:25:59;25.10;88.90
13482;DHT22;6813;60.352;15.746;2023-08-17T11:28:25;25.10;87.60
13482;DHT22;6813;60.352;15.746;2023-08-17T11:30:59;25.20;87.60
13482;DHT22;6813;60.352;15.746;2023-08-17T11:33:28;25.20;86.90
13482;DHT22;6813;60.352;15.746;2023-08-17T11:35:58;25.30;86.60
13482;DHT22;6813;60.352;15.746;2023-08-17T11:38:26;25.50;84.60
13482;DHT22;6813;60.352;15.746;2023-08-17T11:40:52;25.60;85.50
13482;DHT22;6813;60.352;15.746;2023-08-17T11:43:18;25.50;85.90
13482;DHT22;6813;60.352;15.746;2023-08-17T11:45:46;25.20;85.80
13482;DHT22;6813;60.352;15.746;2023-08-17T11:48:11;25.10;87.70
13482;DHT22;6813;60.352;15.746;2023-08-17T11:50:38;25.10;88.40
13482;DHT22;6813;60.352;15.746;2023-08-17T11:53:05;25.10;86.80
13482;DHT22;6813;60.352;15.746;2023-08-17T11:55:31;25.10;88.40
13482;DHT22;6813;60.352;15.746;2023-08-17T11:57:56;25.30;86.50
13482;DHT22;6813;60.352;15.746;2023-08-17T12:00:22;25.30;89.90
13482;DHT22;6813;60.352;15.746;2023-08-17T12:02:50;25.40;86.90
13482;DHT22;6813;60.352;15.746;2023-08-17T12:05:20;25.40;85.20
13482;DHT22;6813;60.352;15.746;2023-08-17T12:07:52;25.50;83.70
13482;DHT22;6813;60.352;15.746;2023-08-17T12:10:18;25.30;86.00
13482;DHT22;6813;60.352;15.746;2023-08-17T12:12:47;25.30;86.60
13482;DHT22;6813;60.352;15.746;2023-08-17T12:15:13;25.10;88.30
13482;DHT22;6813;60.352;15.746;2023-08-17T12:17:49;25.10;84.60
13482;DHT22;6813;60.352;15.746;2023-08-17T12:20:19;24.80;87.20
13482;DHT22;6813;60.352;15.746;2023-08-17T12:22:46;24.60;86.50
13482;DHT22;6813;60.352;15.746;2023-08-17T12:25:12;24.70;86.30
13482;DHT22;6813;60.352;15.746;2023-08-17T12:27:39;24.50;86.40
13482;DHT22;6813;60.352;15.746;2023-08-17T12:30:11;24.60;87.10
13482;DHT22;6813;60.352;15.746;2023-08-17T12:32:37;24.50;87.80
13482;DHT22;6813;60.352;15.746;2023-08-17T12:35:03;24.70;84.00
13482;DHT22;6813;60.352;15.746;2023-08-17T12:37:29;24.60;83.90
13482;DHT22;6813;60.352;15.746;2023-08-17T12:39:55;24.70;85.20
13482;DHT22;6813;60.352;15.746;2023-08-17T12:42:21;24.50;83.60
13482;DHT22;6813;60.352;15.746;2023-08-17T12:44:47;24.60;83.30
13482;DHT22;6813;60.352;15.746;2023-08-17T12:47:12;24.70;84.60
13482;DHT22;6813;60.352;15.746;2023-08-17T12:49:38;24.60;83.60
13482;DHT22;6813;60.352;15.746;2023-08-17T12:52:04;24.50;83.80
13482;DHT22;6813;60.352;15.746;2023-08-17T12:54:29;24.50;87.40
13482;DHT22;6813;60.352;15.746;2023-08-17T12:56:55;24.50;86.70
13482;DHT22;6813;60.352;15.746;2023-08-17T12:59:21;24.50;85.30
13482;DHT22;6813;60.352;15.746;2023-08-17T13:01:47;24.40;85.20
13482;DHT22;6813;60.352;15.746;2023-08-17T13:04:13;24.40;85.00
13482;DHT22;6813;60.352;15.746;2023-08-17T13:06:38;24.40;85.90
13482;DHT22;6813;60.352;15.746;2023-08-17T13:09:05;24.40;85.90
13482;DHT22;6813;60.352;15.746;2023-08-17T13:11:31;24.30;85.10
13482;DHT22;6813;60.352;15.746;2023-08-17T13:13:57;24.30;85.50
13482;DHT22;6813;60.352;15.746;2023-08-17T13:16:23;24.10;86.60
13482;DHT22;6813;60.352;15.746;2023-08-17T13:18:49;24.10;87.60
13482;DHT22;6813;60.352;15.746;2023-08-17T13:21:14;24.10;89.60
13482;DHT22;6813;60.352;15.746;2023-08-17T13:23:41;24.10;87.50
13482;DHT22;6813;60.352;15.746;2023-08-17T13:26:07;24.10;86.60
13482;DHT22;6813;60.352;15.746;2023-08-17T13:28:33;24.10;86.60
13482;DHT22;6813;60.352;15.746;2023-08-17T13:30:58;24.20;85.80
13482;DHT22;6813;60.352;15.746;2023-08-17T13:33:24;23.90;85.40
13482;DHT22;6813;60.352;15.746;2023-08-17T13:35:50;23.50;84.70
13482;DHT22;6813;60.352;15.746;2023-08-17T13:38:16;23.10;90.80
13482;DHT22;6813;60.352;15.746;2023-08-17T13:40:42;23.10;91.20
13482;DHT22;6813;60.352;15.746;2023-08-17T13:43:08;23.10;90.00
13482;DHT22;6813;60.352;15.746;2023-08-17T13:45:39;23.30;88.00
13482;DHT22;6813;60.352;15.746;2023-08-17T13:48:06;23.40;90.00
13482;DHT22;6813;60.352;15.746;2023-08-17T13:50:32;23.40;86.90
13482;DHT22;6813;60.352;15.746;2023-08-17T13:52:58;23.20;88.10
13482;DHT22;6813;60.352;15.746;2023-08-17T13:55:26;23.30;90.30
13482;DHT22;6813;60.352;15.746;2023-08-17T13:57:52;23.40;91.30
13482;DHT22;6813;60.352;15.746;2023-08-17T14:00:22;23.50;86.90
13482;DHT22;6813;60.352;15.746;2023-08-17T14:02:48;23.50;86.70
13482;DHT22;6813;60.352;15.746;2023-08-17T14:05:13;23.50;88.30
13482;DHT22;6813;60.352;15.746;2023-08-17T14:07:39;23.50;90.20
13482;DHT22;6813;60.352;15.746;2023-08-17T14:10:05;23.60;87.90
13482;DHT22;6813;60.352;15.746;2023-08-17T14:12:31;23.50;87.40
13482;DHT22;6813;60.352;15.746;2023-08-17T14:14:56;23.30;88.70
13482;DHT22;6813;60.352;15.746;2023-08-17T14:17:22;23.10;89.70
13482;DHT22;6813;60.352;15.746;2023-08-17T14:19:48;23.20;90.60
13482;DHT22;6813;60.352;15.746;2023-08-17T14:22:13;23.20;90.80
13482;DHT22;6813;60.352;15.746;2023-08-17T14:24:39;23.30;91.30
13482;DHT22;6813;60.352;15.746;2023-08-17T14:27:05;23.10;90.30
13482;DHT22;6813;60.352;15.746;2023-08-17T14:29:30;23.20;89.90
13482;DHT22;6813;60.352;15.746;2023-08-17T14:31:56;23.10;88.70
13482;DHT22;6813;60.352;15.746;2023-08-17T14:34:22;23.10;90.40
13482;DHT22;6813;60.352;15.746;2023-08-17T14:36:47;23.20;90.50
13482;DHT22;6813;60.352;15.746;2023-08-17T14:39:13;23.20;89.90
13482;DHT22;6813;60.352;15.746;2023-08-17T14:41:39;23.00;90.70
13482;DHT22;6813;60.352;15.746;2023-08-17T14:44:05;22.90;91.00
13482;DHT22;6813;60.352;15.746;2023-08-17T14:46:30;22.80;91.70
13482;DHT22;6813;60.352;15.746;2023-08-17T14:48:56;22.90;90.60
13482;DHT22;6813;60.352;15.746;2023-08-17T14:51:24;23.00;90.10
13482;DHT22;6813;60.352;15.746;2023-08-17T14:53:49;23.10;89.60
13482;DHT22;6813;60.352;15.746;2023-08-17T14:56:15;23.20;89.60
13482;DHT22;6813;60.352;15.746;2023-08-17T14:58:41;23.10;90.20
13482;DHT22;6813;60.352;15.746;2023-08-17T15:01:07;22.90;90.90
13482;DHT22;6813;60.352;15.746;2023-08-17T15:03:33;22.80;91.00
13482;DHT22;6813;60.352;15.746;2023-08-17T15:05:59;22.90;90.90
13482;DHT22;6813;60.352;15.746;2023-08-17T15:08:25;23.00;91.20
13482;DHT22;6813;60.352;15.746;2023-08-17T15:10:50;23.10;90.40
13482;DHT22;6813;60.352;15.746;2023-08-17T15:13:16;23.10;90.80
13482;DHT22;6813;60.352;15.746;2023-08-17T15:15:43;23.20;90.60
13482;DHT22;6813;60.352;15.746;2023-08-17T15:18:09;23.30;89.10
13482;DHT22;6813;60.352;15.746;2023-08-17T15:20:35;23.40;89.70
13482;DHT22;6813;60.352;15.746;2023-08-17T15:23:01;23.40;90.00
13482;DHT22;6813;60.352;15.746;2023-08-17T15:25:28;23.40;90.00
13482;DHT22;6813;60.352;15.746;2023-08-17T15:27:54;23.30;90.00
13482;DHT22;6813;60.352;15.746;2023-08-17T15:30:19;23.20;90.60
13482;DHT22;6813;60.352;15.746;2023-08-17T15:32:45;23.10;90.90
13482;DHT22;6813;60.352;15.746;2023-08-17T15:35:11;23.10;90.70
13482;DHT22;6813;60.352;15.746;2023-08-17T15:37:42;23.20;91.60
13482;DHT22;6813;60.352;15.746;2023-08-17T15:40:08;23.20;92.10
13482;DHT22;6813;60.352;15.746;2023-08-17T15:42:33;23.20;90.70
13482;DHT22;6813;60.352;15.746;2023-08-17T15:44:59;23.00;92.60
13482;DHT22;6813;60.352;15.746;2023-08-17T15:47:25;23.00;93.00
13482;DHT22;6813;60.352;15.746;2023-08-17T15:49:51;22.90;90.00